Aérodrome :
LOGIN :

S'inscrire | Disclaimer

   EN    FR    IT 

 










Légende :    VFR   VFR Marginal   IFR   IFR Intensif   IFR Très Intensif
Visi : 
Plafond : 
>= 8 km
>= 3000ft
5 à 8 km
1000 à 3000 ft
1500m à 5 km
500 à 1000 ft
800 à 1500m
200 à 500 ft
< 800m
< 200 ft
Symboles :   Orages  Brouillard  Fortes neiges  Fortes précipitations  Vent > 20 kt
SIGMETs :   Divers  Orages  Givrage  Turbulence  Onde Orograph.  Cendres Volcan.






- Altitude de l'aérodrome : 100 ft


EBDT - Schaffen

DERNIER METAR :
  • 180725Z AUTO 30003KT 9999 FEW110/// SCT160/// BKN220/// 06/04 Q1023 BLU

METARs EXPIRÉS :
  • 180655Z AUTO 33004KT 9999 FEW130/// BKN160/// BKN220/// 05/04 Q1023 BLU
  • 180652Z AUTO 33004KT 9999 FEW110/// BKN160/// BKN220/// 05/03 Q1023 BLU
  • 180625Z AUTO 32003KT 6000 FEW110/// BKN220/// 04/03 Q1023 WHT
  • 180555Z AUTO VRB02KT 5000 FEW120/// SCT150/// BKN220/// 04/03 Q1023 WHT
  • 180525Z AUTO 32006KT 5000 FEW110/// SCT140/// BKN220/// 03/02 Q1023 WHT
  • 180455Z AUTO 32005KT 5000 FEW110/// BKN120/// BKN160/// 02/02 Q1023 WHT

Prévision TAF périmée.



MET'MAP, la Météo Aéronautique d'un coup d'oeil ! - Copyright ORBIFLY Décembre 2007 - Disclaimer

ORBIFLY MET'MAP TEAM :

Programmation & Développement : Alexandra Zaïnal
Sur une idée originale de : Baudouin d'Aumeries
Assistance à la programmation : Marc-Olivier Méhu
Soutien technique & logistique : Manuel Goepfert

Contact : metmap@orbifly.com




SOURCES & CREDITS :

   NOAA